sensor_id;sensor_type;location;lat;lon;timestamp;P1;durP1;ratioP1;P2;durP2;ratioP2
21798;SDS011;24973;47.178;15.316;2023-06-10T00:05:05;9.05;;;6.40;;
21798;SDS011;24973;47.178;15.316;2023-06-10T00:07:54;6.37;;;5.67;;
21798;SDS011;24973;47.178;15.316;2023-06-10T00:10:43;6.80;;;6.10;;
21798;SDS011;24973;47.178;15.316;2023-06-10T00:13:32;7.03;;;5.83;;
21798;SDS011;24973;47.178;15.316;2023-06-10T00:16:22;5.90;;;5.30;;
21798;SDS011;24973;47.178;15.316;2023-06-10T00:19:11;7.33;;;5.70;;
21798;SDS011;24973;47.178;15.316;2023-06-10T00:22:03;6.33;;;5.73;;
21798;SDS011;24973;47.178;15.316;2023-06-10T00:24:53;8.00;;;5.97;;
21798;SDS011;24973;47.178;15.316;2023-06-10T00:27:42;8.90;;;6.80;;
21798;SDS011;24973;47.178;15.316;2023-06-10T00:30:31;7.17;;;6.13;;
21798;SDS011;24973;47.178;15.316;2023-06-10T00:41:48;9.40;;;6.13;;
21798;SDS011;24973;47.178;15.316;2023-06-10T00:44:37;6.33;;;5.20;;
21798;SDS011;24973;47.178;15.316;2023-06-10T00:47:26;8.10;;;6.53;;
21798;SDS011;24973;47.178;15.316;2023-06-10T00:50:15;8.17;;;5.23;;
21798;SDS011;24973;47.178;15.316;2023-06-10T00:53:05;7.30;;;6.20;;
21798;SDS011;24973;47.178;15.316;2023-06-10T00:55:55;7.53;;;5.93;;
21798;SDS011;24973;47.178;15.316;2023-06-10T00:58:45;10.20;;;6.53;;
21798;SDS011;24973;47.178;15.316;2023-06-10T01:01:34;10.07;;;6.17;;
21798;SDS011;24973;47.178;15.316;2023-06-10T01:04:24;6.70;;;6.00;;
21798;SDS011;24973;47.178;15.316;2023-06-10T01:07:15;7.87;;;5.97;;
21798;SDS011;24973;47.178;15.316;2023-06-10T01:10:10;7.53;;;6.10;;
21798;SDS011;24973;47.178;15.316;2023-06-10T01:13:05;6.90;;;6.20;;
21798;SDS011;24973;47.178;15.316;2023-06-10T01:15:58;7.57;;;5.50;;
21798;SDS011;24973;47.178;15.316;2023-06-10T01:18:47;9.93;;;5.90;;
21798;SDS011;24973;47.178;15.316;2023-06-10T01:21:38;8.30;;;6.00;;
21798;SDS011;24973;47.178;15.316;2023-06-10T01:24:28;6.23;;;5.63;;
21798;SDS011;24973;47.178;15.316;2023-06-10T01:27:19;5.70;;;5.20;;
21798;SDS011;24973;47.178;15.316;2023-06-10T01:30:11;6.67;;;5.60;;
21798;SDS011;24973;47.178;15.316;2023-06-10T01:33:04;5.80;;;5.20;;
21798;SDS011;24973;47.178;15.316;2023-06-10T01:35:55;7.90;;;6.00;;
21798;SDS011;24973;47.178;15.316;2023-06-10T01:38:47;6.23;;;5.43;;
21798;SDS011;24973;47.178;15.316;2023-06-10T01:41:38;10.47;;;5.47;;
21798;SDS011;24973;47.178;15.316;2023-06-10T01:44:27;7.13;;;6.20;;
21798;SDS011;24973;47.178;15.316;2023-06-10T01:47:16;7.27;;;5.43;;
21798;SDS011;24973;47.178;15.316;2023-06-10T01:50:06;8.13;;;5.53;;
21798;SDS011;24973;47.178;15.316;2023-06-10T01:52:56;6.37;;;5.77;;
21798;SDS011;24973;47.178;15.316;2023-06-10T01:55:47;11.57;;;6.20;;
21798;SDS011;24973;47.178;15.316;2023-06-10T01:58:36;5.77;;;5.17;;
21798;SDS011;24973;47.178;15.316;2023-06-10T02:01:25;7.90;;;6.73;;
21798;SDS011;24973;47.178;15.316;2023-06-10T02:04:14;8.37;;;6.27;;
21798;SDS011;24973;47.178;15.316;2023-06-10T02:07:04;6.43;;;5.83;;
21798;SDS011;24973;47.178;15.316;2023-06-10T02:09:53;7.37;;;6.43;;
21798;SDS011;24973;47.178;15.316;2023-06-10T02:12:44;7.23;;;5.93;;
21798;SDS011;24973;47.178;15.316;2023-06-10T02:15:33;7.17;;;6.47;;
21798;SDS011;24973;47.178;15.316;2023-06-10T02:18:22;5.93;;;5.33;;
21798;SDS011;24973;47.178;15.316;2023-06-10T02:21:11;7.40;;;6.27;;
21798;SDS011;24973;47.178;15.316;2023-06-10T02:24:00;7.50;;;6.80;;
21798;SDS011;24973;47.178;15.316;2023-06-10T02:26:49;12.23;;;6.43;;
21798;SDS011;24973;47.178;15.316;2023-06-10T02:29:41;8.03;;;6.27;;
21798;SDS011;24973;47.178;15.316;2023-06-10T02:32:30;6.73;;;5.93;;
21798;SDS011;24973;47.178;15.316;2023-06-10T02:35:19;7.73;;;5.77;;
21798;SDS011;24973;47.178;15.316;2023-06-10T02:38:10;7.40;;;6.17;;
21798;SDS011;24973;47.178;15.316;2023-06-10T02:40:59;7.13;;;6.27;;
21798;SDS011;24973;47.178;15.316;2023-06-10T02:43:48;7.97;;;5.77;;
21798;SDS011;24973;47.178;15.316;2023-06-10T02:46:39;10.50;;;6.20;;
21798;SDS011;24973;47.178;15.316;2023-06-10T02:49:28;7.53;;;6.13;;
21798;SDS011;24973;47.178;15.316;2023-06-10T02:52:17;10.37;;;5.70;;
21798;SDS011;24973;47.178;15.316;2023-06-10T02:55:07;6.90;;;5.67;;
21798;SDS011;24973;47.178;15.316;2023-06-10T02:57:56;9.30;;;6.77;;
21798;SDS011;24973;47.178;15.316;2023-06-10T03:00:46;6.53;;;5.93;;
21798;SDS011;24973;47.178;15.316;2023-06-10T03:03:36;8.20;;;6.33;;
21798;SDS011;24973;47.178;15.316;2023-06-10T03:06:29;8.23;;;6.00;;
21798;SDS011;24973;47.178;15.316;2023-06-10T03:09:19;9.67;;;6.97;;
21798;SDS011;24973;47.178;15.316;2023-06-10T03:12:09;8.07;;;7.27;;
21798;SDS011;24973;47.178;15.316;2023-06-10T03:14:58;9.37;;;7.17;;
21798;SDS011;24973;47.178;15.316;2023-06-10T03:17:47;7.23;;;6.33;;
21798;SDS011;24973;47.178;15.316;2023-06-10T03:20:38;6.83;;;6.10;;
21798;SDS011;24973;47.178;15.316;2023-06-10T03:23:27;9.00;;;7.50;;
21798;SDS011;24973;47.178;15.316;2023-06-10T03:26:16;9.20;;;5.87;;
21798;SDS011;24973;47.178;15.316;2023-06-10T03:29:08;7.87;;;5.90;;
21798;SDS011;24973;47.178;15.316;2023-06-10T03:31:57;8.93;;;7.17;;
21798;SDS011;24973;47.178;15.316;2023-06-10T03:34:46;9.77;;;6.37;;
21798;SDS011;24973;47.178;15.316;2023-06-10T03:37:36;7.40;;;6.73;;
21798;SDS011;24973;47.178;15.316;2023-06-10T03:40:25;7.73;;;6.00;;
21798;SDS011;24973;47.178;15.316;2023-06-10T03:43:17;9.83;;;7.87;;
21798;SDS011;24973;47.178;15.316;2023-06-10T03:46:06;9.07;;;8.17;;
21798;SDS011;24973;47.178;15.316;2023-06-10T03:48:55;9.50;;;7.23;;
21798;SDS011;24973;47.178;15.316;2023-06-10T03:51:47;7.70;;;6.60;;
21798;SDS011;24973;47.178;15.316;2023-06-10T03:54:38;6.60;;;6.00;;
21798;SDS011;24973;47.178;15.316;2023-06-10T03:57:27;7.17;;;6.47;;
21798;SDS011;24973;47.178;15.316;2023-06-10T04:00:16;9.37;;;5.93;;
21798;SDS011;24973;47.178;15.316;2023-06-10T04:03:07;6.57;;;5.93;;
21798;SDS011;24973;47.178;15.316;2023-06-10T04:06:01;6.60;;;6.00;;
21798;SDS011;24973;47.178;15.316;2023-06-10T04:08:51;6.67;;;5.83;;
21798;SDS011;24973;47.178;15.316;2023-06-10T04:11:41;6.60;;;5.93;;
21798;SDS011;24973;47.178;15.316;2023-06-10T04:14:30;6.30;;;5.70;;
21798;SDS011;24973;47.178;15.316;2023-06-10T04:17:19;8.30;;;6.13;;
21798;SDS011;24973;47.178;15.316;2023-06-10T04:20:08;6.17;;;5.30;;
21798;SDS011;24973;47.178;15.316;2023-06-10T04:22:58;6.80;;;5.37;;
21798;SDS011;24973;47.178;15.316;2023-06-10T04:25:47;7.33;;;6.17;;
21798;SDS011;24973;47.178;15.316;2023-06-10T04:28:38;9.37;;;6.30;;
21798;SDS011;24973;47.178;15.316;2023-06-10T04:31:27;8.63;;;6.33;;
21798;SDS011;24973;47.178;15.316;2023-06-10T04:34:16;7.57;;;6.47;;
21798;SDS011;24973;47.178;15.316;2023-06-10T04:37:05;7.40;;;6.60;;
21798;SDS011;24973;47.178;15.316;2023-06-10T04:39:54;6.53;;;5.90;;
21798;SDS011;24973;47.178;15.316;2023-06-10T04:42:43;7.70;;;6.87;;
21798;SDS011;24973;47.178;15.316;2023-06-10T04:45:34;9.57;;;6.97;;
21798;SDS011;24973;47.178;15.316;2023-06-10T04:48:23;8.67;;;7.00;;
21798;SDS011;24973;47.178;15.316;2023-06-10T04:51:12;11.90;;;6.70;;
21798;SDS011;24973;47.178;15.316;2023-06-10T04:54:01;10.13;;;6.97;;
21798;SDS011;24973;47.178;15.316;2023-06-10T04:56:50;7.20;;;6.50;;
21798;SDS011;24973;47.178;15.316;2023-06-10T04:59:41;10.13;;;7.70;;
21798;SDS011;24973;47.178;15.316;2023-06-10T05:02:31;6.80;;;6.17;;
21798;SDS011;24973;47.178;15.316;2023-06-10T05:05:20;8.97;;;6.93;;
21798;SDS011;24973;47.178;15.316;2023-06-10T05:08:09;7.73;;;6.93;;
21798;SDS011;24973;47.178;15.316;2023-06-10T05:10:58;8.47;;;6.87;;
21798;SDS011;24973;47.178;15.316;2023-06-10T05:13:47;7.67;;;6.13;;
21798;SDS011;24973;47.178;15.316;2023-06-10T05:16:36;7.67;;;6.90;;
21798;SDS011;24973;47.178;15.316;2023-06-10T05:19:27;8.50;;;7.60;;
21798;SDS011;24973;47.178;15.316;2023-06-10T05:22:16;7.03;;;6.37;;
21798;SDS011;24973;47.178;15.316;2023-06-10T05:25:06;10.03;;;8.30;;
21798;SDS011;24973;47.178;15.316;2023-06-10T05:27:55;10.10;;;7.53;;
21798;SDS011;24973;47.178;15.316;2023-06-10T05:30:44;9.57;;;6.70;;
21798;SDS011;24973;47.178;15.316;2023-06-10T05:33:33;8.17;;;6.83;;
21798;SDS011;24973;47.178;15.316;2023-06-10T05:36:24;9.07;;;7.30;;
21798;SDS011;24973;47.178;15.316;2023-06-10T05:39:14;10.83;;;6.93;;
21798;SDS011;24973;47.178;15.316;2023-06-10T05:42:03;8.90;;;6.40;;
21798;SDS011;24973;47.178;15.316;2023-06-10T05:44:53;7.10;;;6.40;;
21798;SDS011;24973;47.178;15.316;2023-06-10T05:47:42;7.73;;;6.50;;
21798;SDS011;24973;47.178;15.316;2023-06-10T05:50:31;8.40;;;7.10;;
21798;SDS011;24973;47.178;15.316;2023-06-10T05:53:26;9.73;;;8.43;;
21798;SDS011;24973;47.178;15.316;2023-06-10T05:56:15;9.23;;;7.83;;
21798;SDS011;24973;47.178;15.316;2023-06-10T05:59:04;7.97;;;7.27;;
21798;SDS011;24973;47.178;15.316;2023-06-10T06:01:53;8.20;;;7.33;;
21798;SDS011;24973;47.178;15.316;2023-06-10T06:04:43;7.57;;;6.23;;
21798;SDS011;24973;47.178;15.316;2023-06-10T06:07:32;6.97;;;6.27;;
21798;SDS011;24973;47.178;15.316;2023-06-10T06:10:22;8.87;;;6.63;;
21798;SDS011;24973;47.178;15.316;2023-06-10T06:13:11;8.07;;;6.83;;
21798;SDS011;24973;47.178;15.316;2023-06-10T06:16:01;9.03;;;7.23;;
21798;SDS011;24973;47.178;15.316;2023-06-10T06:18:50;8.87;;;6.77;;
21798;SDS011;24973;47.178;15.316;2023-06-10T06:21:39;9.37;;;7.07;;
21798;SDS011;24973;47.178;15.316;2023-06-10T06:24:28;9.40;;;7.50;;
21798;SDS011;24973;47.178;15.316;2023-06-10T06:27:18;7.53;;;6.73;;
21798;SDS011;24973;47.178;15.316;2023-06-10T06:30:08;10.70;;;7.17;;
21798;SDS011;24973;47.178;15.316;2023-06-10T06:32:57;9.47;;;7.40;;
21798;SDS011;24973;47.178;15.316;2023-06-10T06:35:47;8.00;;;7.07;;
21798;SDS011;24973;47.178;15.316;2023-06-10T06:38:36;8.63;;;7.03;;
21798;SDS011;24973;47.178;15.316;2023-06-10T06:41:25;12.10;;;7.87;;
21798;SDS011;24973;47.178;15.316;2023-06-10T06:44:16;8.93;;;8.03;;
21798;SDS011;24973;47.178;15.316;2023-06-10T06:47:05;7.30;;;6.67;;
21798;SDS011;24973;47.178;15.316;2023-06-10T06:49:55;8.73;;;7.47;;
21798;SDS011;24973;47.178;15.316;2023-06-10T06:52:44;11.50;;;7.20;;
21798;SDS011;24973;47.178;15.316;2023-06-10T06:55:33;10.07;;;7.27;;
21798;SDS011;24973;47.178;15.316;2023-06-10T06:58:22;11.87;;;7.57;;
21798;SDS011;24973;47.178;15.316;2023-06-10T07:01:12;9.53;;;8.40;;
21798;SDS011;24973;47.178;15.316;2023-06-10T07:04:01;9.83;;;7.33;;
21798;SDS011;24973;47.178;15.316;2023-06-10T07:06:51;10.07;;;7.63;;
21798;SDS011;24973;47.178;15.316;2023-06-10T07:09:40;9.80;;;7.90;;
21798;SDS011;24973;47.178;15.316;2023-06-10T07:12:29;8.67;;;7.40;;
21798;SDS011;24973;47.178;15.316;2023-06-10T07:15:18;10.23;;;7.30;;
21798;SDS011;24973;47.178;15.316;2023-06-10T07:18:08;10.87;;;6.87;;
21798;SDS011;24973;47.178;15.316;2023-06-10T07:20:57;10.30;;;7.40;;
21798;SDS011;24973;47.178;15.316;2023-06-10T07:23:46;8.13;;;6.53;;
21798;SDS011;24973;47.178;15.316;2023-06-10T07:26:36;8.50;;;7.30;;
21798;SDS011;24973;47.178;15.316;2023-06-10T07:29:25;10.00;;;6.83;;
21798;SDS011;24973;47.178;15.316;2023-06-10T07:32:14;8.07;;;7.27;;
21798;SDS011;24973;47.178;15.316;2023-06-10T07:35:08;9.67;;;7.17;;
21798;SDS011;24973;47.178;15.316;2023-06-10T07:37:58;8.57;;;7.77;;
21798;SDS011;24973;47.178;15.316;2023-06-10T07:40:47;10.10;;;7.57;;
21798;SDS011;24973;47.178;15.316;2023-06-10T07:43:36;8.53;;;5.93;;
21798;SDS011;24973;47.178;15.316;2023-06-10T07:46:25;7.37;;;6.67;;
21798;SDS011;24973;47.178;15.316;2023-06-10T07:49:15;6.87;;;6.27;;
21798;SDS011;24973;47.178;15.316;2023-06-10T07:52:06;9.10;;;6.73;;
21798;SDS011;24973;47.178;15.316;2023-06-10T07:54:55;9.80;;;6.97;;
21798;SDS011;24973;47.178;15.316;2023-06-10T07:57:44;7.57;;;6.87;;
21798;SDS011;24973;47.178;15.316;2023-06-10T08:00:35;10.03;;;6.20;;
21798;SDS011;24973;47.178;15.316;2023-06-10T08:03:28;10.57;;;8.30;;
21798;SDS011;24973;47.178;15.316;2023-06-10T08:06:18;10.40;;;6.75;;
21798;SDS011;24973;47.178;15.316;2023-06-10T08:09:08;7.80;;;6.00;;
21798;SDS011;24973;47.178;15.316;2023-06-10T08:11:57;20.57;;;13.73;;
21798;SDS011;24973;47.178;15.316;2023-06-10T08:14:46;14.97;;;9.60;;
21798;SDS011;24973;47.178;15.316;2023-06-10T08:17:36;11.03;;;8.27;;
21798;SDS011;24973;47.178;15.316;2023-06-10T08:20:26;11.87;;;7.30;;
21798;SDS011;24973;47.178;15.316;2023-06-10T08:23:15;7.93;;;7.13;;
21798;SDS011;24973;47.178;15.316;2023-06-10T08:26:07;6.90;;;6.17;;
21798;SDS011;24973;47.178;15.316;2023-06-10T08:28:56;7.93;;;6.70;;
21798;SDS011;24973;47.178;15.316;2023-06-10T08:31:45;9.33;;;6.60;;
21798;SDS011;24973;47.178;15.316;2023-06-10T08:34:35;11.90;;;6.97;;
21798;SDS011;24973;47.178;15.316;2023-06-10T08:37:24;9.00;;;6.30;;
21798;SDS011;24973;47.178;15.316;2023-06-10T08:40:13;7.07;;;6.37;;
21798;SDS011;24973;47.178;15.316;2023-06-10T08:43:05;8.20;;;6.57;;
21798;SDS011;24973;47.178;15.316;2023-06-10T08:45:55;6.93;;;5.93;;
21798;SDS011;24973;47.178;15.316;2023-06-10T08:48:47;10.57;;;7.10;;
21798;SDS011;24973;47.178;15.316;2023-06-10T08:51:37;9.03;;;7.33;;
21798;SDS011;24973;47.178;15.316;2023-06-10T08:54:30;7.73;;;6.73;;
21798;SDS011;24973;47.178;15.316;2023-06-10T08:57:22;7.50;;;6.30;;
21798;SDS011;24973;47.178;15.316;2023-06-10T09:00:13;6.00;;;5.43;;
21798;SDS011;24973;47.178;15.316;2023-06-10T09:03:03;8.37;;;6.20;;
21798;SDS011;24973;47.178;15.316;2023-06-10T09:05:55;8.50;;;6.97;;
21798;SDS011;24973;47.178;15.316;2023-06-10T09:08:45;6.60;;;5.93;;
21798;SDS011;24973;47.178;15.316;2023-06-10T09:11:34;7.33;;;6.23;;
21798;SDS011;24973;47.178;15.316;2023-06-10T09:14:23;6.87;;;6.27;;
21798;SDS011;24973;47.178;15.316;2023-06-10T09:17:14;5.97;;;5.20;;
21798;SDS011;24973;47.178;15.316;2023-06-10T09:20:04;7.57;;;6.70;;
21798;SDS011;24973;47.178;15.316;2023-06-10T09:22:56;8.37;;;6.40;;
21798;SDS011;24973;47.178;15.316;2023-06-10T09:25:45;7.63;;;6.67;;
21798;SDS011;24973;47.178;15.316;2023-06-10T09:28:41;10.73;;;6.63;;
21798;SDS011;24973;47.178;15.316;2023-06-10T09:31:31;6.10;;;5.50;;
21798;SDS011;24973;47.178;15.316;2023-06-10T09:34:24;7.60;;;6.07;;
21798;SDS011;24973;47.178;15.316;2023-06-10T09:37:14;6.77;;;6.13;;
21798;SDS011;24973;47.178;15.316;2023-06-10T09:40:08;11.13;;;6.93;;
21798;SDS011;24973;47.178;15.316;2023-06-10T09:42:58;6.50;;;5.57;;
21798;SDS011;24973;47.178;15.316;2023-06-10T09:45:48;8.83;;;6.30;;
21798;SDS011;24973;47.178;15.316;2023-06-10T09:48:40;7.77;;;6.10;;
21798;SDS011;24973;47.178;15.316;2023-06-10T09:51:32;7.67;;;6.40;;
21798;SDS011;24973;47.178;15.316;2023-06-10T09:54:21;9.57;;;5.77;;
21798;SDS011;24973;47.178;15.316;2023-06-10T09:57:10;6.60;;;5.90;;
21798;SDS011;24973;47.178;15.316;2023-06-10T10:00:03;6.10;;;5.50;;
21798;SDS011;24973;47.178;15.316;2023-06-10T10:03:11;7.03;;;6.07;;
21798;SDS011;24973;47.178;15.316;2023-06-10T10:06:11;7.90;;;5.73;;
21798;SDS011;24973;47.178;15.316;2023-06-10T10:09:03;6.67;;;5.43;;
21798;SDS011;24973;47.178;15.316;2023-06-10T10:12:07;7.60;;;6.37;;
21798;SDS011;24973;47.178;15.316;2023-06-10T10:15:30;5.67;;;5.13;;
21798;SDS011;24973;47.178;15.316;2023-06-10T10:18:45;6.47;;;5.87;;
21798;SDS011;24973;47.178;15.316;2023-06-10T10:21:53;5.20;;;4.70;;
21798;SDS011;24973;47.178;15.316;2023-06-10T10:24:49;7.33;;;5.50;;
21798;SDS011;24973;47.178;15.316;2023-06-10T10:27:44;6.43;;;4.90;;
21798;SDS011;24973;47.178;15.316;2023-06-10T10:30:46;5.93;;;5.33;;
21798;SDS011;24973;47.178;15.316;2023-06-10T10:33:57;5.67;;;4.63;;
21798;SDS011;24973;47.178;15.316;2023-06-10T10:36:50;6.27;;;5.23;;
21798;SDS011;24973;47.178;15.316;2023-06-10T10:39:45;6.70;;;5.20;;
21798;SDS011;24973;47.178;15.316;2023-06-10T10:42:36;5.80;;;5.20;;
21798;SDS011;24973;47.178;15.316;2023-06-10T10:45:27;6.20;;;5.60;;
21798;SDS011;24973;47.178;15.316;2023-06-10T10:48:16;6.33;;;5.17;;
21798;SDS011;24973;47.178;15.316;2023-06-10T10:51:06;5.50;;;4.47;;
21798;SDS011;24973;47.178;15.316;2023-06-10T10:54:10;5.20;;;4.70;;
21798;SDS011;24973;47.178;15.316;2023-06-10T10:57:11;6.07;;;5.30;;
21798;SDS011;24973;47.178;15.316;2023-06-10T11:00:01;5.70;;;5.20;;
21798;SDS011;24973;47.178;15.316;2023-06-10T11:02:51;5.80;;;5.20;;
21798;SDS011;24973;47.178;15.316;2023-06-10T11:05:42;5.90;;;5.20;;
21798;SDS011;24973;47.178;15.316;2023-06-10T11:08:46;5.65;;;5.25;;
21798;SDS011;24973;47.178;15.316;2023-06-10T11:11:37;5.50;;;5.00;;
21798;SDS011;24973;47.178;15.316;2023-06-10T11:14:39;6.00;;;5.40;;
21798;SDS011;24973;47.178;15.316;2023-06-10T11:21:03;4.97;;;4.47;;
21798;SDS011;24973;47.178;15.316;2023-06-10T11:23:53;6.43;;;5.83;;
21798;SDS011;24973;47.178;15.316;2023-06-10T11:26:45;5.83;;;4.37;;
21798;SDS011;24973;47.178;15.316;2023-06-10T11:29:34;5.00;;;4.50;;
21798;SDS011;24973;47.178;15.316;2023-06-10T11:32:29;6.63;;;4.87;;
21798;SDS011;24973;47.178;15.316;2023-06-10T11:35:19;4.80;;;4.40;;
21798;SDS011;24973;47.178;15.316;2023-06-10T11:38:09;4.57;;;4.17;;
21798;SDS011;24973;47.178;15.316;2023-06-10T11:40:58;5.47;;;4.80;;
21798;SDS011;24973;47.178;15.316;2023-06-10T11:43:48;6.13;;;4.10;;
21798;SDS011;24973;47.178;15.316;2023-06-10T11:46:37;4.67;;;4.27;;
21798;SDS011;24973;47.178;15.316;2023-06-10T11:49:28;4.93;;;4.40;;
21798;SDS011;24973;47.178;15.316;2023-06-10T11:52:17;8.17;;;5.83;;
21798;SDS011;24973;47.178;15.316;2023-06-10T11:55:15;7.30;;;5.80;;
21798;SDS011;24973;47.178;15.316;2023-06-10T11:58:04;5.93;;;5.43;;
21798;SDS011;24973;47.178;15.316;2023-06-10T12:00:53;6.70;;;6.00;;
21798;SDS011;24973;47.178;15.316;2023-06-10T12:03:44;5.93;;;5.43;;
21798;SDS011;24973;47.178;15.316;2023-06-10T12:06:42;6.53;;;5.73;;
21798;SDS011;24973;47.178;15.316;2023-06-10T12:09:33;5.73;;;5.23;;
21798;SDS011;24973;47.178;15.316;2023-06-10T12:12:22;6.13;;;5.50;;
21798;SDS011;24973;47.178;15.316;2023-06-10T12:15:22;6.93;;;6.10;;
21798;SDS011;24973;47.178;15.316;2023-06-10T12:18:16;5.63;;;5.13;;
21798;SDS011;24973;47.178;15.316;2023-06-10T12:21:15;6.17;;;5.60;;
21798;SDS011;24973;47.178;15.316;2023-06-10T12:24:07;4.70;;;4.37;;
21798;SDS011;24973;47.178;15.316;2023-06-10T12:32:41;4.90;;;4.40;;
21798;SDS011;24973;47.178;15.316;2023-06-10T12:35:30;5.47;;;4.97;;
21798;SDS011;24973;47.178;15.316;2023-06-10T12:38:23;4.97;;;4.47;;
21798;SDS011;24973;47.178;15.316;2023-06-10T12:41:15;5.40;;;4.95;;
21798;SDS011;24973;47.178;15.316;2023-06-10T12:44:04;4.30;;;3.90;;
21798;SDS011;24973;47.178;15.316;2023-06-10T12:46:54;5.65;;;5.15;;
21798;SDS011;24973;47.178;15.316;2023-06-10T12:49:43;6.05;;;4.68;;
21798;SDS011;24973;47.178;15.316;2023-06-10T12:52:32;4.50;;;4.10;;
21798;SDS011;24973;47.178;15.316;2023-06-10T12:55:21;5.90;;;4.60;;
21798;SDS011;24973;47.178;15.316;2023-06-10T12:58:12;4.22;;;3.60;;
21798;SDS011;24973;47.178;15.316;2023-06-10T13:01:01;5.28;;;3.08;;
21798;SDS011;24973;47.178;15.316;2023-06-10T13:03:51;3.00;;;2.78;;
21798;SDS011;24973;47.178;15.316;2023-06-10T13:06:40;3.40;;;3.10;;
21798;SDS011;24973;47.178;15.316;2023-06-10T13:09:29;3.23;;;2.87;;
21798;SDS011;24973;47.178;15.316;2023-06-10T13:12:18;3.10;;;2.90;;
21798;SDS011;24973;47.178;15.316;2023-06-10T13:15:14;3.50;;;3.10;;
21798;SDS011;24973;47.178;15.316;2023-06-10T13:18:03;2.97;;;2.77;;
21798;SDS011;24973;47.178;15.316;2023-06-10T13:20:53;3.67;;;2.70;;
21798;SDS011;24973;47.178;15.316;2023-06-10T13:23:43;4.40;;;2.87;;
21798;SDS011;24973;47.178;15.316;2023-06-10T13:26:34;3.37;;;3.07;;
21798;SDS011;24973;47.178;15.316;2023-06-10T13:29:23;3.50;;;3.20;;
21798;SDS011;24973;47.178;15.316;2023-06-10T13:32:13;3.00;;;2.77;;
21798;SDS011;24973;47.178;15.316;2023-06-10T13:35:02;3.17;;;2.97;;
21798;SDS011;24973;47.178;15.316;2023-06-10T13:37:52;3.33;;;3.03;;
21798;SDS011;24973;47.178;15.316;2023-06-10T13:40:41;3.83;;;3.07;;
21798;SDS011;24973;47.178;15.316;2023-06-10T13:43:31;3.53;;;3.23;;
21798;SDS011;24973;47.178;15.316;2023-06-10T13:46:20;3.67;;;3.30;;
21798;SDS011;24973;47.178;15.316;2023-06-10T13:49:11;3.97;;;3.50;;
21798;SDS011;24973;47.178;15.316;2023-06-10T13:52:00;4.30;;;3.67;;
21798;SDS011;24973;47.178;15.316;2023-06-10T13:54:49;6.37;;;3.77;;
21798;SDS011;24973;47.178;15.316;2023-06-10T13:57:38;5.63;;;4.03;;
21798;SDS011;24973;47.178;15.316;2023-06-10T14:00:27;6.50;;;4.53;;
21798;SDS011;24973;47.178;15.316;2023-06-10T14:03:16;7.53;;;4.37;;
21798;SDS011;24973;47.178;15.316;2023-06-10T14:06:07;11.57;;;5.73;;
21798;SDS011;24973;47.178;15.316;2023-06-10T14:08:56;7.70;;;4.27;;
21798;SDS011;24973;47.178;15.316;2023-06-10T14:11:45;11.05;;;5.20;;
21798;SDS011;24973;47.178;15.316;2023-06-10T14:14:34;5.10;;;4.60;;
21798;SDS011;24973;47.178;15.316;2023-06-10T14:17:23;6.13;;;5.10;;
21798;SDS011;24973;47.178;15.316;2023-06-10T14:20:12;5.33;;;4.40;;
21798;SDS011;24973;47.178;15.316;2023-06-10T14:23:03;7.83;;;4.83;;
21798;SDS011;24973;47.178;15.316;2023-06-10T14:25:52;10.30;;;5.20;;
21798;SDS011;24973;47.178;15.316;2023-06-10T14:28:41;6.07;;;4.97;;
21798;SDS011;24973;47.178;15.316;2023-06-10T14:31:30;6.17;;;5.57;;
21798;SDS011;24973;47.178;15.316;2023-06-10T14:34:19;8.60;;;5.70;;
21798;SDS011;24973;47.178;15.316;2023-06-10T14:37:10;5.80;;;5.03;;
21798;SDS011;24973;47.178;15.316;2023-06-10T14:40:00;5.63;;;4.77;;
21798;SDS011;24973;47.178;15.316;2023-06-10T14:42:50;8.37;;;5.73;;
21798;SDS011;24973;47.178;15.316;2023-06-10T14:45:39;9.50;;;5.93;;
21798;SDS011;24973;47.178;15.316;2023-06-10T14:48:28;7.00;;;5.23;;
21798;SDS011;24973;47.178;15.316;2023-06-10T14:51:17;6.33;;;5.73;;
21798;SDS011;24973;47.178;15.316;2023-06-10T14:54:07;6.53;;;5.73;;
21798;SDS011;24973;47.178;15.316;2023-06-10T14:56:58;8.60;;;6.03;;
21798;SDS011;24973;47.178;15.316;2023-06-10T14:59:47;6.93;;;6.23;;
21798;SDS011;24973;47.178;15.316;2023-06-10T15:02:36;8.23;;;5.87;;
21798;SDS011;24973;47.178;15.316;2023-06-10T15:05:25;7.43;;;5.70;;
21798;SDS011;24973;47.178;15.316;2023-06-10T15:08:14;6.10;;;5.50;;
21798;SDS011;24973;47.178;15.316;2023-06-10T15:11:03;7.53;;;6.57;;
21798;SDS011;24973;47.178;15.316;2023-06-10T15:13:54;7.03;;;6.33;;
21798;SDS011;24973;47.178;15.316;2023-06-10T15:16:43;7.93;;;7.13;;
21798;SDS011;24973;47.178;15.316;2023-06-10T15:19:32;7.50;;;6.70;;
21798;SDS011;24973;47.178;15.316;2023-06-10T15:22:21;7.47;;;6.77;;
21798;SDS011;24973;47.178;15.316;2023-06-10T15:25:10;11.17;;;7.00;;
21798;SDS011;24973;47.178;15.316;2023-06-10T15:28:02;7.93;;;6.90;;
21798;SDS011;24973;47.178;15.316;2023-06-10T15:30:53;7.73;;;5.63;;
21798;SDS011;24973;47.178;15.316;2023-06-10T15:33:42;7.30;;;6.60;;
21798;SDS011;24973;47.178;15.316;2023-06-10T15:36:33;8.53;;;6.43;;
21798;SDS011;24973;47.178;15.316;2023-06-10T15:39:23;7.60;;;6.77;;
21798;SDS011;24973;47.178;15.316;2023-06-10T15:42:13;7.60;;;6.30;;
21798;SDS011;24973;47.178;15.316;2023-06-10T15:45:03;6.03;;;5.47;;
21798;SDS011;24973;47.178;15.316;2023-06-10T15:47:54;6.93;;;6.27;;
21798;SDS011;24973;47.178;15.316;2023-06-10T15:50:43;7.10;;;6.40;;
21798;SDS011;24973;47.178;15.316;2023-06-10T15:53:32;7.33;;;6.53;;
21798;SDS011;24973;47.178;15.316;2023-06-10T15:56:22;6.63;;;6.03;;
21798;SDS011;24973;47.178;15.316;2023-06-10T15:59:12;6.90;;;6.23;;
21798;SDS011;24973;47.178;15.316;2023-06-10T16:02:01;7.23;;;6.47;;
21798;SDS011;24973;47.178;15.316;2023-06-10T16:04:53;7.30;;;6.60;;
21798;SDS011;24973;47.178;15.316;2023-06-10T16:07:42;7.13;;;6.20;;
21798;SDS011;24973;47.178;15.316;2023-06-10T16:10:31;7.13;;;6.43;;
21798;SDS011;24973;47.178;15.316;2023-06-10T16:13:20;6.80;;;6.05;;
21798;SDS011;24973;47.178;15.316;2023-06-10T16:16:09;6.87;;;6.20;;
21798;SDS011;24973;47.178;15.316;2023-06-10T16:18:58;6.50;;;5.90;;
21798;SDS011;24973;47.178;15.316;2023-06-10T16:21:49;5.30;;;4.80;;
21798;SDS011;24973;47.178;15.316;2023-06-10T16:24:38;6.60;;;5.90;;
21798;SDS011;24973;47.178;15.316;2023-06-10T16:27:27;7.30;;;5.80;;
21798;SDS011;24973;47.178;15.316;2023-06-10T16:30:16;7.37;;;6.63;;
21798;SDS011;24973;47.178;15.316;2023-06-10T16:33:05;8.63;;;6.90;;
21798;SDS011;24973;47.178;15.316;2023-06-10T16:35:54;10.67;;;6.20;;
21798;SDS011;24973;47.178;15.316;2023-06-10T16:38:45;7.43;;;6.40;;
21798;SDS011;24973;47.178;15.316;2023-06-10T16:41:34;6.80;;;6.00;;
21798;SDS011;24973;47.178;15.316;2023-06-10T16:44:23;6.37;;;5.73;;
21798;SDS011;24973;47.178;15.316;2023-06-10T16:47:12;7.37;;;6.07;;
21798;SDS011;24973;47.178;15.316;2023-06-10T16:50:03;7.73;;;6.43;;
21798;SDS011;24973;47.178;15.316;2023-06-10T16:52:52;7.40;;;6.67;;
21798;SDS011;24973;47.178;15.316;2023-06-10T16:55:43;7.60;;;5.30;;
21798;SDS011;24973;47.178;15.316;2023-06-10T16:58:32;6.63;;;5.57;;
21798;SDS011;24973;47.178;15.316;2023-06-10T17:01:21;6.77;;;6.03;;
21798;SDS011;24973;47.178;15.316;2023-06-10T17:04:10;7.13;;;6.43;;
21798;SDS011;24973;47.178;15.316;2023-06-10T17:06:59;7.07;;;5.93;;
21798;SDS011;24973;47.178;15.316;2023-06-10T17:09:48;10.07;;;7.07;;
21798;SDS011;24973;47.178;15.316;2023-06-10T17:12:39;6.97;;;6.37;;